Pinehill, Texas
Current Conditions -  °F | °C
As of 6:35 PM on Friday 31 Oct 2014 (Local Time) from KRFI Reporting Station
Clear Clear  
Wind Chill: 61°   Ceiling: Unl
Heat Index: 61°   Visibility: 10mi
Dew Point: 44°   Wind: 5mph
Humidity: 54%   Direction: 350°N
Pressure: 30.26"   Gusts: NA
Location:  32.1449°N, 94.7416°W
Report Text: KRFI 312335Z AUTO 35004KT 10SM CLR 16/07 A3026 RMK AO2 T01600067
Loading
Personal Weather Stations






























Interactive Weather Map
Tropical Storm Tracking
New forecast layout! Learn more

10-Day Weather Forecast

Advertisements
Track Severe Weather on mobile